AAL5406 KRDU-KDCA
Flight info
| Callsign | AAL5406 |
|---|---|
| Flight time | 0h 38m |
| Altitude | 29000 |
| Route | BEXGO5 BOUSY WAVES CAPSS4 |
| Aircraft | A319/M-SDE3FGHIRWY/LB1 |
Departure
| Time | 2026-05-08 02:14 |
|---|---|
| Airport | Raleigh-Durham International Airport (KRDU) |
Arrival
| Time | 2026-05-08 02:52 |
|---|---|
| Airport | Ronald Reagan Washington National Airport (KDCA) |
| Time | Latitude | Longitude | Altitude | Speed | Heading |
|---|---|---|---|---|---|
| 2026-05-08 01:48 | 35.87805 | -78.79345 | 392 ft | 0 kts | 135° |
| 2026-05-08 02:06 | 35.87812 | -78.79354 | 392 ft | 4 kts | 139° |
| 2026-05-08 02:06 | 35.87831 | -78.79371 | 392 ft | 4 kts | 153° |
| 2026-05-08 02:07 | 35.87856 | -78.79381 | 392 ft | 4 kts | 183° |
| 2026-05-08 02:07 | 35.87876 | -78.79373 | 392 ft | 1 kts | 225° |
| 2026-05-08 02:07 | 35.87876 | -78.79372 | 392 ft | 0 kts | 225° |
| 2026-05-08 02:09 | 35.87874 | -78.79375 | 392 ft | 2 kts | 225° |
| 2026-05-08 02:10 | 35.87843 | -78.79413 | 392 ft | 10 kts | 225° |
| 2026-05-08 02:10 | 35.87786 | -78.79482 | 392 ft | 13 kts | 224° |
| 2026-05-08 02:10 | 35.87720 | -78.79564 | 392 ft | 14 kts | 225° |
| 2026-05-08 02:10 | 35.87645 | -78.79658 | 392 ft | 16 kts | 225° |
| 2026-05-08 02:11 | 35.87561 | -78.79762 | 391 ft | 18 kts | 225° |
| 2026-05-08 02:11 | 35.87469 | -78.79874 | 392 ft | 19 kts | 224° |
| 2026-05-08 02:11 | 35.87369 | -78.79992 | 392 ft | 20 kts | 224° |
| 2026-05-08 02:11 | 35.87361 | -78.80074 | 392 ft | 10 kts | 319° |
| 2026-05-08 02:12 | 35.87387 | -78.80103 | 392 ft | 0 kts | 317° |
| 2026-05-08 02:12 | 35.87389 | -78.80105 | 392 ft | 2 kts | 317° |
| 2026-05-08 02:12 | 35.87424 | -78.80145 | 392 ft | 11 kts | 316° |
| 2026-05-08 02:13 | 35.87492 | -78.80141 | 392 ft | 13 kts | 45° |
| 2026-05-08 02:13 | 35.87615 | -78.79988 | 391 ft | 57 kts | 45° |
| 2026-05-08 02:13 | 35.88090 | -78.79402 | 393 ft | 129 kts | 45° |
| 2026-05-08 02:13 | 35.88806 | -78.78521 | 775 ft | 148 kts | 44° |
| 2026-05-08 02:14 | 35.89518 | -78.77642 | 1592 ft | 142 kts | 43° |
| 2026-05-08 02:14 | 35.90214 | -78.76783 | 2307 ft | 143 kts | 40° |
| 2026-05-08 02:14 | 35.90971 | -78.75859 | 2754 ft | 164 kts | 39° |
| 2026-05-08 02:14 | 35.91881 | -78.74874 | 3144 ft | 185 kts | 32° |
| 2026-05-08 02:15 | 35.93006 | -78.73928 | 3634 ft | 208 kts | 29° |
| 2026-05-08 02:15 | 35.94241 | -78.72787 | 4192 ft | 234 kts | 32° |
| 2026-05-08 02:15 | 35.95600 | -78.71510 | 4829 ft | 255 kts | 32° |
| 2026-05-08 02:15 | 35.97048 | -78.70142 | 5610 ft | 270 kts | 32° |
| 2026-05-08 02:16 | 35.98565 | -78.68706 | 6290 ft | 279 kts | 33° |
| 2026-05-08 02:16 | 36.00128 | -78.67222 | 7195 ft | 287 kts | 33° |
| 2026-05-08 02:16 | 36.01733 | -78.65698 | 8082 ft | 295 kts | 33° |
| 2026-05-08 02:16 | 36.03387 | -78.64129 | 8957 ft | 304 kts | 32° |
| 2026-05-08 02:17 | 36.05090 | -78.62515 | 9828 ft | 313 kts | 32° |
| 2026-05-08 02:17 | 36.06857 | -78.60846 | 10402 ft | 331 kts | 32° |
| 2026-05-08 02:17 | 36.08716 | -78.59096 | 10784 ft | 354 kts | 32° |
| 2026-05-08 02:17 | 36.10706 | -78.57215 | 11462 ft | 365 kts | 32° |
| 2026-05-08 02:18 | 36.12736 | -78.55285 | 12280 ft | 371 kts | 32° |
| 2026-05-08 02:18 | 36.14797 | -78.53323 | 13103 ft | 377 kts | 32° |
| 2026-05-08 02:18 | 36.16896 | -78.51320 | 13900 ft | 383 kts | 32° |
| 2026-05-08 02:18 | 36.19018 | -78.49292 | 14625 ft | 388 kts | 32° |
| 2026-05-08 02:19 | 36.21168 | -78.47241 | 15385 ft | 393 kts | 31° |
| 2026-05-08 02:19 | 36.23345 | -78.45166 | 16110 ft | 397 kts | 31° |
| 2026-05-08 02:19 | 36.25553 | -78.43062 | 16832 ft | 402 kts | 31° |
| 2026-05-08 02:19 | 36.27755 | -78.40962 | 17545 ft | 407 kts | 30° |
| 2026-05-08 02:20 | 36.30017 | -78.38830 | 18244 ft | 412 kts | 29° |
| 2026-05-08 02:20 | 36.32324 | -78.36686 | 18848 ft | 416 kts | 28° |
| 2026-05-08 02:20 | 36.34647 | -78.34541 | 19445 ft | 421 kts | 28° |
| 2026-05-08 02:20 | 36.36902 | -78.32458 | 20009 ft | 426 kts | 28° |
| 2026-05-08 02:21 | 36.39299 | -78.30236 | 20617 ft | 431 kts | 28° |
| 2026-05-08 02:21 | 36.41711 | -78.27994 | 21247 ft | 436 kts | 28° |
| 2026-05-08 02:21 | 36.44153 | -78.25716 | 21836 ft | 441 kts | 28° |
| 2026-05-08 02:21 | 36.46614 | -78.23415 | 22422 ft | 446 kts | 28° |
| 2026-05-08 02:22 | 36.49110 | -78.21082 | 23017 ft | 451 kts | 28° |
| 2026-05-08 02:22 | 36.51628 | -78.18724 | 23583 ft | 455 kts | 28° |
| 2026-05-08 02:22 | 36.54163 | -78.16339 | 24045 ft | 460 kts | 27° |
| 2026-05-08 02:22 | 36.56722 | -78.13923 | 24556 ft | 465 kts | 27° |
| 2026-05-08 02:23 | 36.59313 | -78.11477 | 25001 ft | 469 kts | 27° |
| 2026-05-08 02:23 | 36.61929 | -78.09001 | 25437 ft | 474 kts | 26° |
| 2026-05-08 02:23 | 36.64560 | -78.06508 | 25926 ft | 478 kts | 26° |
| 2026-05-08 02:23 | 36.67221 | -78.03988 | 26334 ft | 483 kts | 26° |
| 2026-05-08 02:24 | 36.69910 | -78.01440 | 26774 ft | 487 kts | 26° |
| 2026-05-08 02:24 | 36.72617 | -77.98874 | 27192 ft | 491 kts | 25° |
| 2026-05-08 02:24 | 36.75353 | -77.96279 | 27604 ft | 495 kts | 25° |
| 2026-05-08 02:24 | 36.78101 | -77.93669 | 27982 ft | 500 kts | 25° |
| 2026-05-08 02:25 | 36.80903 | -77.91067 | 28374 ft | 498 kts | 21° |
| 2026-05-08 02:25 | 36.83823 | -77.88957 | 28767 ft | 485 kts | 11° |
| 2026-05-08 02:25 | 36.86877 | -77.87169 | 28973 ft | 483 kts | 10° |
| 2026-05-08 02:25 | 36.89876 | -77.85403 | 28959 ft | 472 kts | 10° |
| 2026-05-08 02:26 | 36.95770 | -77.81942 | 28963 ft | 466 kts | 10° |
| 2026-05-08 02:26 | 37.01647 | -77.78518 | 28975 ft | 465 kts | 10° |
| 2026-05-08 02:27 | 37.07514 | -77.75089 | 28979 ft | 465 kts | 10° |
| 2026-05-08 02:27 | 37.13357 | -77.71649 | 28973 ft | 463 kts | 11° |
| 2026-05-08 02:28 | 37.19184 | -77.68214 | 28977 ft | 462 kts | 11° |
| 2026-05-08 02:28 | 37.24967 | -77.64810 | 28979 ft | 462 kts | 11° |
| 2026-05-08 02:29 | 37.27893 | -77.63092 | 28478 ft | 469 kts | 11° |
| 2026-05-08 02:29 | 37.30856 | -77.61362 | 27619 ft | 474 kts | 12° |
| 2026-05-08 02:29 | 37.33852 | -77.59591 | 26979 ft | 471 kts | 13° |
| 2026-05-08 02:29 | 37.36761 | -77.57855 | 26344 ft | 469 kts | 13° |
| 2026-05-08 02:30 | 37.39696 | -77.56094 | 25728 ft | 465 kts | 14° |
| 2026-05-08 02:30 | 37.42607 | -77.54349 | 25134 ft | 461 kts | 14° |
| 2026-05-08 02:30 | 37.45490 | -77.52626 | 24552 ft | 458 kts | 14° |
| 2026-05-08 02:30 | 37.48353 | -77.50919 | 24122 ft | 451 kts | 14° |
| 2026-05-08 02:31 | 37.51156 | -77.49243 | 23636 ft | 445 kts | 14° |
| 2026-05-08 02:31 | 37.53970 | -77.47578 | 22839 ft | 449 kts | 14° |
| 2026-05-08 02:31 | 37.56758 | -77.45926 | 22319 ft | 445 kts | 15° |
| 2026-05-08 02:31 | 37.58631 | -77.44922 | 21982 ft | 434 kts | 9° |
| 2026-05-08 02:32 | 37.62292 | -77.43694 | 21663 ft | 412 kts | 2° |
| 2026-05-08 02:32 | 37.65064 | -77.42853 | 21259 ft | 407 kts | 2° |
| 2026-05-08 02:32 | 37.67808 | -77.42004 | 20798 ft | 404 kts | 3° |
| 2026-05-08 02:32 | 37.70525 | -77.41156 | 20315 ft | 402 kts | 3° |
| 2026-05-08 02:33 | 37.72353 | -77.40584 | 20028 ft | 399 kts | 4° |
| 2026-05-08 02:33 | 37.75036 | -77.39743 | 19607 ft | 395 kts | 4° |
| 2026-05-08 02:33 | 37.77697 | -77.38912 | 19208 ft | 391 kts | 4° |
| 2026-05-08 02:33 | 37.80289 | -77.38103 | 18830 ft | 387 kts | 4° |
| 2026-05-08 02:34 | 37.82927 | -77.37284 | 18447 ft | 384 kts | 4° |
| 2026-05-08 02:34 | 37.85485 | -77.36495 | 18045 ft | 381 kts | 4° |
| 2026-05-08 02:34 | 37.88053 | -77.35705 | 17684 ft | 379 kts | 4° |
| 2026-05-08 02:34 | 37.90606 | -77.34921 | 17343 ft | 377 kts | 5° |
| 2026-05-08 02:35 | 37.93159 | -77.34136 | 16967 ft | 375 kts | 5° |
| 2026-05-08 02:35 | 37.95689 | -77.33358 | 16595 ft | 373 kts | 5° |
| 2026-05-08 02:35 | 37.98206 | -77.32584 | 16236 ft | 372 kts | 5° |
| 2026-05-08 02:35 | 38.00710 | -77.31813 | 15860 ft | 370 kts | 5° |
| 2026-05-08 02:36 | 38.03196 | -77.31046 | 15495 ft | 368 kts | 5° |
| 2026-05-08 02:36 | 38.05685 | -77.30279 | 15134 ft | 366 kts | 5° |
| 2026-05-08 02:36 | 38.08152 | -77.29518 | 14773 ft | 364 kts | 6° |
| 2026-05-08 02:36 | 38.10605 | -77.28755 | 14414 ft | 362 kts | 6° |
| 2026-05-08 02:37 | 38.13039 | -77.27992 | 14063 ft | 360 kts | 6° |
| 2026-05-08 02:37 | 38.15460 | -77.27231 | 13699 ft | 358 kts | 7° |
| 2026-05-08 02:37 | 38.17875 | -77.26472 | 13323 ft | 355 kts | 7° |
| 2026-05-08 02:37 | 38.20262 | -77.25718 | 12999 ft | 352 kts | 7° |
| 2026-05-08 02:38 | 38.22621 | -77.24904 | 12706 ft | 350 kts | 9° |
| 2026-05-08 02:38 | 38.24946 | -77.24033 | 12428 ft | 348 kts | 10° |
| 2026-05-08 02:38 | 38.27261 | -77.23135 | 12151 ft | 345 kts | 11° |
| 2026-05-08 02:38 | 38.29541 | -77.22241 | 11882 ft | 344 kts | 10° |
| 2026-05-08 02:39 | 38.31828 | -77.21347 | 11618 ft | 343 kts | 10° |
| 2026-05-08 02:39 | 38.34105 | -77.20466 | 11354 ft | 341 kts | 10° |
| 2026-05-08 02:39 | 38.36365 | -77.19602 | 11103 ft | 338 kts | 9° |
| 2026-05-08 02:39 | 38.38606 | -77.18750 | 10929 ft | 336 kts | 10° |
| 2026-05-08 02:40 | 38.40844 | -77.17894 | 10835 ft | 335 kts | 10° |
| 2026-05-08 02:40 | 38.43069 | -77.17038 | 10735 ft | 332 kts | 10° |
| 2026-05-08 02:40 | 38.45270 | -77.16189 | 10623 ft | 330 kts | 10° |
| 2026-05-08 02:40 | 38.47465 | -77.15341 | 10515 ft | 329 kts | 10° |
| 2026-05-08 02:41 | 38.49621 | -77.14509 | 10412 ft | 327 kts | 10° |
| 2026-05-08 02:41 | 38.51797 | -77.13668 | 10306 ft | 324 kts | 10° |
| 2026-05-08 02:41 | 38.53903 | -77.12845 | 10184 ft | 310 kts | 10° |
| 2026-05-08 02:41 | 38.55929 | -77.12050 | 10055 ft | 299 kts | 10° |
| 2026-05-08 02:42 | 38.57895 | -77.11284 | 9804 ft | 292 kts | 9° |
| 2026-05-08 02:42 | 38.59830 | -77.10539 | 9637 ft | 289 kts | 9° |
| 2026-05-08 02:42 | 38.61716 | -77.09818 | 9365 ft | 286 kts | 9° |
| 2026-05-08 02:42 | 38.63618 | -77.09093 | 9086 ft | 284 kts | 10° |
| 2026-05-08 02:43 | 38.65496 | -77.08374 | 8796 ft | 281 kts | 11° |
| 2026-05-08 02:43 | 38.67365 | -77.07657 | 8481 ft | 279 kts | 11° |
| 2026-05-08 02:43 | 38.69230 | -77.07083 | 8199 ft | 272 kts | 1° |
| 2026-05-08 02:43 | 38.71100 | -77.06888 | 7922 ft | 269 kts | 359° |
| 2026-05-08 02:44 | 38.72936 | -77.06705 | 7651 ft | 267 kts | 359° |
| 2026-05-08 02:44 | 38.74788 | -77.06534 | 7382 ft | 264 kts | 356° |
| 2026-05-08 02:44 | 38.76577 | -77.06813 | 7134 ft | 258 kts | 341° |
| 2026-05-08 02:44 | 38.78216 | -77.07675 | 6874 ft | 253 kts | 327° |
| 2026-05-08 02:45 | 38.79700 | -77.08892 | 6615 ft | 252 kts | 325° |
| 2026-05-08 02:45 | 38.81172 | -77.10106 | 6360 ft | 251 kts | 326° |
| 2026-05-08 02:45 | 38.82641 | -77.11313 | 6091 ft | 250 kts | 326° |
| 2026-05-08 02:45 | 38.83980 | -77.12732 | 5746 ft | 250 kts | 315° |
| 2026-05-08 02:46 | 38.85219 | -77.14274 | 5318 ft | 249 kts | 315° |
| 2026-05-08 02:46 | 38.86462 | -77.15820 | 4896 ft | 248 kts | 315° |
| 2026-05-08 02:46 | 38.87695 | -77.17350 | 4474 ft | 246 kts | 315° |
| 2026-05-08 02:46 | 38.88923 | -77.18877 | 4056 ft | 245 kts | 315° |
| 2026-05-08 02:47 | 38.90149 | -77.20403 | 3649 ft | 245 kts | 315° |
| 2026-05-08 02:47 | 38.91355 | -77.21904 | 3270 ft | 243 kts | 315° |
| 2026-05-08 02:47 | 38.92527 | -77.23364 | 3206 ft | 226 kts | 315° |
| 2026-05-08 02:47 | 38.93693 | -77.24615 | 3103 ft | 214 kts | 332° |
| 2026-05-08 02:48 | 38.95115 | -77.24839 | 3013 ft | 211 kts | 9° |
| 2026-05-08 02:48 | 38.96310 | -77.23812 | 3002 ft | 213 kts | 50° |
| 2026-05-08 02:48 | 38.96698 | -77.22008 | 3017 ft | 212 kts | 92° |
| 2026-05-08 02:48 | 38.96543 | -77.20153 | 3011 ft | 207 kts | 93° |
| 2026-05-08 02:49 | 38.96480 | -77.18319 | 2878 ft | 204 kts | 90° |
| 2026-05-08 02:49 | 38.96438 | -77.16496 | 2727 ft | 204 kts | 92° |
| 2026-05-08 02:49 | 38.96083 | -77.14745 | 2675 ft | 205 kts | 120° |
| 2026-05-08 02:49 | 38.95140 | -77.13392 | 2515 ft | 207 kts | 146° |
| 2026-05-08 02:50 | 38.93946 | -77.12317 | 2177 ft | 213 kts | 150° |
| 2026-05-08 02:50 | 38.92720 | -77.11275 | 1960 ft | 207 kts | 150° |
| 2026-05-08 02:50 | 38.91568 | -77.10237 | 1728 ft | 199 kts | 146° |
| 2026-05-08 02:50 | 38.90680 | -77.08953 | 1575 ft | 188 kts | 120° |
| 2026-05-08 02:51 | 38.90213 | -77.07455 | 1338 ft | 175 kts | 120° |
| 2026-05-08 02:51 | 38.89500 | -77.06300 | 1039 ft | 157 kts | 136° |
| 2026-05-08 02:51 | 38.88782 | -77.05334 | 774 ft | 142 kts | 137° |
| 2026-05-08 02:51 | 38.88129 | -77.04424 | 489 ft | 134 kts | 140° |
| 2026-05-08 02:52 | 38.87317 | -77.03995 | 340 ft | 127 kts | 180° |
| 2026-05-08 02:52 | 38.86451 | -77.03904 | 140 ft | 125 kts | 178° |
| 2026-05-08 02:52 | 38.85606 | -77.03821 | 29 ft | 110 kts | 171° |
| 2026-05-08 02:52 | 38.85052 | -77.03767 | 24 ft | 41 kts | 175° |
| 2026-05-08 02:53 | 38.84823 | -77.03745 | 24 ft | 27 kts | 178° |
| 2026-05-08 02:53 | 38.84686 | -77.03806 | 25 ft | 16 kts | 228° |
| 2026-05-08 02:53 | 38.84720 | -77.03885 | 24 ft | 11 kts | 326° |
| 2026-05-08 02:53 | 38.84770 | -77.03939 | 24 ft | 9 kts | 351° |
| 2026-05-08 02:54 | 38.84839 | -77.03945 | 24 ft | 11 kts | 356° |
| 2026-05-08 02:54 | 38.84925 | -77.03954 | 24 ft | 14 kts | 355° |
| 2026-05-08 02:54 | 38.85024 | -77.03962 | 24 ft | 15 kts | 356° |
| 2026-05-08 02:54 | 38.85131 | -77.03973 | 24 ft | 14 kts | 355° |
| 2026-05-08 02:55 | 38.85226 | -77.03984 | 24 ft | 13 kts | 355° |
| 2026-05-08 02:55 | 38.85382 | -77.03999 | 24 ft | 11 kts | 356° |
| 2026-05-08 02:55 | 38.85427 | -77.04004 | 24 ft | 4 kts | 355° |
| 2026-05-08 02:56 | 38.85461 | -77.04007 | 24 ft | 6 kts | 356° |
| 2026-05-08 02:56 | 38.85500 | -77.04011 | 24 ft | 2 kts | 355° |
| 2026-05-08 02:56 | 38.85514 | -77.04012 | 24 ft | 2 kts | 354° |
| 2026-05-08 02:56 | 38.85541 | -77.04039 | 18 ft | 7 kts | 299° |
| 2026-05-08 02:57 | 38.85532 | -77.04110 | 24 ft | 9 kts | 252° |
| 2026-05-08 02:57 | 38.85513 | -77.04191 | 24 ft | 5 kts | 259° |
| 2026-05-08 02:57 | 38.85534 | -77.04207 | 25 ft | 2 kts | 336° |
| 2026-05-08 02:57 | 38.85551 | -77.04215 | 24 ft | 3 kts | 337° |
| 2026-05-08 02:58 | 38.85562 | -77.04221 | 26 ft | 0 kts | 337° |